Time;durP1;ratioP1;P1;durP2;ratioP2;P2;SDS_P1;SDS_P2;PMS_P1;PMS_P2;Temp;Humidity;BMP_temperature;BMP_pressure;BME280_temperature;BME280_humidity;BME280_pressure;Samples;Min_cycle;Max_cycle;Signal;HPM_P1;HPM_P2
2022/11/07 00:02:19;;;;;;;4.97;1.52;;;;;;;;;;4905621;29;20059;-63
2022/11/07 00:04:48;;;;;;;3.50;1.52;;;;;;;;;;4892784;29;20056;-64
2022/11/07 00:07:14;;;;;;;4.63;1.63;;;;;;;;;;4882171;29;20104;-64
2022/11/07 00:09:41;;;;;;;8.95;1.70;;;;;;;;;;4897006;29;20152;-64
2022/11/07 00:12:07;;;;;;;7.30;1.92;;;;;;;;;;4880045;29;20063;-64
2022/11/07 00:14:35;;;;;;;7.60;1.75;;;;;;;;;;4895249;29;20352;-64
2022/11/07 00:17:02;;;;;;;4.28;1.50;;;;;;;;;;4883588;29;20068;-64
2022/11/07 00:19:29;;;;;;;7.60;1.70;;;;;;;;;;4871889;29;20071;-64
2022/11/07 00:21:55;;;;;;;5.93;2.05;;;;;;;;;;4925807;28;20052;-64
2022/11/07 00:24:22;;;;;;;4.07;1.60;;;;;;;;;;4921769;28;20052;-62
2022/11/07 00:26:49;;;;;;;3.03;1.42;;;;;;;;;;4907777;29;20053;-64
2022/11/07 00:29:16;;;;;;;3.53;1.30;;;;;;;;;;4893433;29;20178;-63
2022/11/07 00:31:44;;;;;;;3.78;1.40;;;;;;;;;;4903167;29;20064;-63
2022/11/07 00:34:11;;;;;;;8.18;1.50;;;;;;;;;;4903402;29;20064;-64
2022/11/07 00:36:37;;;;;;;8.20;2.92;;;;;;;;;;4906988;29;20083;-64
2022/11/07 00:39:04;;;;;;;8.25;2.40;;;;;;;;;;4897680;29;20060;-64
2022/11/07 00:41:31;;;;;;;5.35;1.98;;;;;;;;;;4919868;29;20068;-63
2022/11/07 00:43:58;;;;;;;6.43;1.98;;;;;;;;;;4903492;29;20052;-64
2022/11/07 00:46:25;;;;;;;5.07;1.70;;;;;;;;;;4903217;29;20056;-64
2022/11/07 00:48:53;;;;;;;4.13;1.38;;;;;;;;;;4899290;29;20056;-64
2022/11/07 00:51:21;;;;;;;6.07;1.92;;;;;;;;;;4889954;29;20158;-64
2022/11/07 00:53:48;;;;;;;5.30;1.50;;;;;;;;;;4903385;29;20051;-64
2022/11/07 00:56:16;;;;;;;5.50;1.52;;;;;;;;;;4944275;28;20057;-64
2022/11/07 00:58:43;;;;;;;5.80;1.50;;;;;;;;;;4950974;28;20062;-62
2022/11/07 01:01:11;;;;;;;4.03;1.40;;;;;;;;;;4939308;28;20135;-64
2022/11/07 01:06:27;;;;;;;9.48;1.50;;;;;;;;;;4928709;28;20062;-63
2022/11/07 01:08:53;;;;;;;5.10;1.60;;;;;;;;;;4938976;28;20055;-64
2022/11/07 01:11:20;;;;;;;5.78;1.50;;;;;;;;;;4934808;28;20062;-63
2022/11/07 01:13:47;;;;;;;3.65;1.30;;;;;;;;;;4934917;28;20058;-63
2022/11/07 01:16:13;;;;;;;6.53;1.55;;;;;;;;;;4942897;28;20145;-64
2022/11/07 01:18:40;;;;;;;6.72;1.27;;;;;;;;;;4937802;28;20059;-64
2022/11/07 01:21:07;;;;;;;6.38;1.35;;;;;;;;;;4921054;28;20055;-64
2022/11/07 01:23:36;;;;;;;5.22;1.50;;;;;;;;;;4940726;28;20197;-63
2022/11/07 01:26:06;;;;;;;2.95;1.30;;;;;;;;;;4952095;28;20059;-65
2022/11/07 01:28:32;;;;;;;6.60;1.55;;;;;;;;;;4940153;28;20110;-64
2022/11/07 01:31:03;;;;;;;3.28;0.93;;;;;;;;;;4959812;28;20066;-64
2022/11/07 01:33:30;;;;;;;4.43;1.30;;;;;;;;;;4976665;28;20054;-64
2022/11/07 01:35:59;;;;;;;4.78;1.15;;;;;;;;;;4975853;28;20106;-63
2022/11/07 01:38:26;;;;;;;3.20;1.25;;;;;;;;;;4975859;28;20065;-63
2022/11/07 01:43:45;;;;;;;4.53;1.30;;;;;;;;;;4933972;29;20043;-62
2022/11/07 01:46:12;;;;;;;1.98;0.90;;;;;;;;;;4935813;28;20074;-62
2022/11/07 01:48:39;;;;;;;4.03;1.30;;;;;;;;;;4938940;28;20051;-62
2022/11/07 01:51:06;;;;;;;2.45;1.08;;;;;;;;;;4935022;28;20114;-62
2022/11/07 01:53:35;;;;;;;3.42;1.13;;;;;;;;;;4937356;28;20084;-63
2022/11/07 01:56:01;;;;;;;;;;;;;;;;;;4958372;28;20051;-63
2022/11/07 01:58:29;;;;;;;3.15;1.13;;;;;;;;;;4953803;28;19981;-64
2022/11/07 02:00:57;;;;;;;2.88;0.80;;;;;;;;;;4977526;28;20079;-63
2022/11/07 02:03:25;;;;;;;4.03;1.10;;;;;;;;;;4959094;28;20059;-63
2022/11/07 02:05:54;;;;;;;4.65;1.30;;;;;;;;;;4974707;28;20063;-64
2022/11/07 02:08:22;;;;;;;5.03;1.33;;;;;;;;;;4975979;28;20146;-64
2022/11/07 02:10:49;;;;;;;2.97;1.20;;;;;;;;;;4977373;28;20054;-64
2022/11/07 02:13:21;;;;;;;7.57;1.00;;;;;;;;;;4969333;28;20265;-64
2022/11/07 02:15:47;;;;;;;5.28;1.48;;;;;;;;;;4974713;28;20061;-64
2022/11/07 02:18:15;;;;;;;2.85;1.38;;;;;;;;;;4975944;28;20058;-63
2022/11/07 02:20:42;;;;;;;3.28;1.30;;;;;;;;;;4955479;28;20057;-63
2022/11/07 02:23:11;;;;;;;3.28;1.00;;;;;;;;;;4970547;28;20059;-64
2022/11/07 02:25:39;;;;;;;7.07;1.20;;;;;;;;;;4940450;28;20062;-63
2022/11/07 02:28:07;;;;;;;5.77;1.27;;;;;;;;;;4927169;28;20135;-63
2022/11/07 02:30:34;;;;;;;3.05;1.20;;;;;;;;;;4924786;28;20310;-63
2022/11/07 02:33:01;;;;;;;3.35;1.10;;;;;;;;;;4954512;28;20050;-63
2022/11/07 02:35:41;;;;;;;3.83;1.20;;;;;;;;;;4937199;28;20119;-63
2022/11/07 02:38:10;;;;;;;4.50;1.20;;;;;;;;;;4939867;28;20071;-62
2022/11/07 02:40:37;;;;;;;3.70;1.33;;;;;;;;;;4938253;28;20051;-62
2022/11/07 02:43:12;;;;;;;4.00;1.08;;;;;;;;;;4941272;28;20141;-64
2022/11/07 02:45:40;;;;;;;4.28;1.23;;;;;;;;;;4939056;28;20055;-63
2022/11/07 02:48:07;;;;;;;4.73;1.10;;;;;;;;;;4943789;28;20108;-63
2022/11/07 02:50:34;;;;;;;5.00;1.52;;;;;;;;;;4953422;28;20130;-64
2022/11/07 02:53:00;;;;;;;2.83;1.20;;;;;;;;;;4952261;28;20050;-64
2022/11/07 02:55:28;;;;;;;4.35;1.23;;;;;;;;;;4977300;28;20054;-64
2022/11/07 02:57:54;;;;;;;8.95;1.58;;;;;;;;;;4979650;28;20043;-63
2022/11/07 03:00:22;;;;;;;4.50;1.20;;;;;;;;;;4963513;28;20066;-63
2022/11/07 03:02:50;;;;;;;7.63;1.30;;;;;;;;;;4959048;28;20110;-63
2022/11/07 03:05:18;;;;;;;7.23;1.53;;;;;;;;;;4956967;28;20051;-62
2022/11/07 03:07:45;;;;;;;4.80;1.25;;;;;;;;;;4944535;28;20342;-64
2022/11/07 03:10:12;;;;;;;5.53;1.40;;;;;;;;;;4964967;28;20051;-62
2022/11/07 03:12:40;;;;;;;9.07;1.42;;;;;;;;;;4960911;28;20185;-62
2022/11/07 03:15:07;;;;;;;9.02;1.20;;;;;;;;;;4937662;28;20055;-64
2022/11/07 03:17:35;;;;;;;4.72;1.40;;;;;;;;;;4960931;28;20051;-64
2022/11/07 03:20:02;;;;;;;2.38;1.02;;;;;;;;;;4965225;28;20057;-62
2022/11/07 03:22:29;;;;;;;3.03;1.20;;;;;;;;;;4963790;28;20050;-62
2022/11/07 03:24:57;;;;;;;2.50;1.17;;;;;;;;;;4946460;28;20051;-63
2022/11/07 03:27:23;;;;;;;3.38;1.17;;;;;;;;;;4960534;28;20064;-64
2022/11/07 03:29:50;;;;;;;8.90;1.65;;;;;;;;;;4944118;28;20066;-63
2022/11/07 03:32:17;;;;;;;6.18;1.58;;;;;;;;;;4945832;28;20059;-63
2022/11/07 03:34:44;;;;;;;4.75;1.23;;;;;;;;;;4948410;28;20118;-63
2022/11/07 03:37:11;;;;;;;6.82;1.23;;;;;;;;;;4938117;28;20055;-63
2022/11/07 03:39:38;;;;;;;4.70;1.25;;;;;;;;;;4948085;28;20055;-63
2022/11/07 03:42:05;;;;;;;7.18;1.70;;;;;;;;;;4944217;28;20039;-63
2022/11/07 03:44:31;;;;;;;7.78;1.30;;;;;;;;;;4960452;28;20054;-64
2022/11/07 03:46:58;;;;;;;4.95;1.30;;;;;;;;;;4967023;28;20043;-63
2022/11/07 03:49:25;;;;;;;5.70;1.45;;;;;;;;;;4956906;28;20058;-63
2022/11/07 03:51:53;;;;;;;3.10;1.10;;;;;;;;;;4964061;28;20058;-63
2022/11/07 03:54:19;;;;;;;1.67;1.00;;;;;;;;;;4962172;28;20106;-63
2022/11/07 03:56:46;;;;;;;4.78;1.40;;;;;;;;;;4963176;28;20082;-64
2022/11/07 03:59:13;;;;;;;5.10;1.20;;;;;;;;;;4972440;28;20074;-63
2022/11/07 04:01:39;;;;;;;3.30;1.10;;;;;;;;;;4979448;28;20054;-63
2022/11/07 04:04:08;;;;;;;4.93;1.20;;;;;;;;;;4978303;28;20155;-62
2022/11/07 04:06:35;;;;;;;6.53;1.25;;;;;;;;;;4962698;28;20246;-63
2022/11/07 04:09:03;;;;;;;6.63;1.50;;;;;;;;;;4965001;28;20135;-63
2022/11/07 04:19:42;;;;;;;4.78;1.20;;;;;;;;;;4961846;28;20166;-64
2022/11/07 04:22:10;;;;;;;9.30;1.40;;;;;;;;;;4963869;28;20074;-63
2022/11/07 04:24:38;;;;;;;4.60;1.20;;;;;;;;;;4958990;28;20055;-63
2022/11/07 04:29:49;;;;;;;3.42;1.20;;;;;;;;;;4960613;28;20052;-63
2022/11/07 04:32:16;;;;;;;6.63;1.42;;;;;;;;;;4943739;28;20419;-64
2022/11/07 04:34:42;;;;;;;4.50;1.10;;;;;;;;;;4942968;28;20067;-63
2022/11/07 04:37:09;;;;;;;5.50;1.38;;;;;;;;;;4937518;28;20047;-63
2022/11/07 04:39:35;;;;;;;5.00;1.45;;;;;;;;;;4943272;28;20047;-63
2022/11/07 04:42:03;;;;;;;4.60;1.08;;;;;;;;;;4960867;28;20063;-63
2022/11/07 04:44:32;;;;;;;3.97;1.42;;;;;;;;;;4960299;28;20121;-63
2022/11/07 04:46:59;;;;;;;5.32;1.20;;;;;;;;;;4959888;28;20061;-63
2022/11/07 04:49:26;;;;;;;4.15;1.13;;;;;;;;;;4960667;28;20078;-63
2022/11/07 04:51:55;;;;;;;6.03;1.20;;;;;;;;;;4961642;28;20054;-62
2022/11/07 04:54:22;;;;;;;9.50;1.38;;;;;;;;;;4978669;28;20054;-63
2022/11/07 04:56:48;;;;;;;3.67;1.20;;;;;;;;;;4963340;28;20047;-63
2022/11/07 04:59:16;;;;;;;4.93;1.30;;;;;;;;;;4956738;28;20051;-63
2022/11/07 05:01:43;;;;;;;6.50;1.60;;;;;;;;;;4978752;28;20063;-63
2022/11/07 05:04:09;;;;;;;3.92;1.10;;;;;;;;;;4967878;28;20121;-63
2022/11/07 05:06:36;;;;;;;9.00;1.63;;;;;;;;;;4983514;28;20102;-63
2022/11/07 05:09:03;;;;;;;4.82;1.35;;;;;;;;;;4974395;28;20151;-63
2022/11/07 05:11:30;;;;;;;7.10;1.30;;;;;;;;;;4976247;28;20089;-64
2022/11/07 05:13:56;;;;;;;4.60;1.42;;;;;;;;;;4962073;28;20047;-64
2022/11/07 05:16:24;;;;;;;3.88;1.15;;;;;;;;;;4962947;28;20043;-64
2022/11/07 05:18:51;;;;;;;10.10;1.40;;;;;;;;;;4961729;28;20050;-63
2022/11/07 05:21:17;;;;;;;10.45;1.42;;;;;;;;;;4970705;28;20216;-64
2022/11/07 05:23:44;;;;;;;5.20;1.25;;;;;;;;;;4977030;28;20064;-63
2022/11/07 05:26:10;;;;;;;7.15;1.17;;;;;;;;;;4982767;28;20065;-63
2022/11/07 05:28:37;;;;;;;4.50;1.20;;;;;;;;;;4960339;28;20051;-64
2022/11/07 05:31:05;;;;;;;7.50;1.17;;;;;;;;;;4945548;28;20130;-63
2022/11/07 05:33:34;;;;;;;3.47;1.25;;;;;;;;;;4959279;28;20059;-64
2022/11/07 05:36:11;;;;;;;5.97;1.30;;;;;;;;;;4957969;28;20101;-64
2022/11/07 05:38:39;;;;;;;4.57;1.27;;;;;;;;;;4941463;28;20062;-63
2022/11/07 05:41:06;;;;;;;4.30;0.98;;;;;;;;;;4935524;28;20047;-65
2022/11/07 05:43:32;;;;;;;7.32;1.25;;;;;;;;;;4951515;28;20051;-63
2022/11/07 05:46:18;;;;;;;8.32;1.25;;;;;;;;;;4963562;28;20046;-64
2022/11/07 05:49:02;;;;;;;5.60;1.27;;;;;;;;;;4968783;28;20043;-64
2022/11/07 05:51:40;;;;;;;2.88;0.90;;;;;;;;;;4967032;28;20054;-63
2022/11/07 05:54:26;;;;;;;8.23;1.20;;;;;;;;;;4968843;28;20051;-64
2022/11/07 05:57:03;;;;;;;10.60;1.77;;;;;;;;;;4966936;28;20069;-63
2022/11/07 05:59:41;;;;;;;4.57;1.67;;;;;;;;;;4971126;28;20050;-64
2022/11/07 06:02:15;;;;;;;4.95;1.38;;;;;;;;;;4981571;28;20061;-63
2022/11/07 06:04:51;;;;;;;8.35;1.30;;;;;;;;;;4981471;28;20050;-63
2022/11/07 06:07:22;;;;;;;7.55;1.63;;;;;;;;;;4983248;28;20050;-63
2022/11/07 06:09:50;;;;;;;6.47;1.02;;;;;;;;;;4960944;28;20051;-63
2022/11/07 06:12:23;;;;;;;4.90;1.50;;;;;;;;;;4950276;28;20043;-63
2022/11/07 06:14:59;;;;;;;5.22;1.05;;;;;;;;;;4949432;28;20047;-63
2022/11/07 06:17:33;;;;;;;8.85;0.95;;;;;;;;;;4960472;28;20075;-63
2022/11/07 06:20:07;;;;;;;12.13;2.10;;;;;;;;;;4965018;28;20062;-63
2022/11/07 06:22:48;;;;;;;4.18;1.08;;;;;;;;;;4966259;28;20173;-63
2022/11/07 06:25:15;;;;;;;5.05;1.05;;;;;;;;;;4957830;28;20047;-63
2022/11/07 06:27:42;;;;;;;8.77;1.10;;;;;;;;;;4950575;28;20066;-63
2022/11/07 06:30:09;;;;;;;5.32;1.23;;;;;;;;;;4959739;28;20046;-63
2022/11/07 06:32:38;;;;;;;3.00;1.02;;;;;;;;;;4961584;28;20085;-64
2022/11/07 06:35:05;;;;;;;;;;;;;;;;;;4975551;28;20055;-64
2022/11/07 06:37:34;;;;;;;8.10;1.23;;;;;;;;;;4961135;28;19926;-64
2022/11/07 06:40:01;;;;;;;6.35;1.10;;;;;;;;;;4981242;28;20298;-62
2022/11/07 06:42:27;;;;;;;3.38;0.98;;;;;;;;;;4961190;28;20137;-63
2022/11/07 06:44:54;;;;;;;5.70;1.25;;;;;;;;;;4959658;28;20054;-63
2022/11/07 06:47:21;;;;;;;7.25;1.35;;;;;;;;;;4971229;28;20062;-64
2022/11/07 06:49:48;;;;;;;5.85;1.40;;;;;;;;;;4962060;28;20063;-64
2022/11/07 06:52:15;;;;;;;5.43;1.10;;;;;;;;;;4976807;28;20055;-64
2022/11/07 06:54:44;;;;;;;8.30;1.65;;;;;;;;;;4975722;28;20381;-63
2022/11/07 06:57:10;;;;;;;4.45;1.20;;;;;;;;;;4971638;28;20047;-64
2022/11/07 06:59:37;;;;;;;9.32;2.00;;;;;;;;;;4959176;28;20065;-63
2022/11/07 07:02:05;;;;;;;12.23;1.92;;;;;;;;;;4976528;28;20079;-64
2022/11/07 07:04:33;;;;;;;9.93;1.98;;;;;;;;;;4977397;28;20248;-65
2022/11/07 07:06:59;;;;;;;7.07;1.42;;;;;;;;;;4953775;28;20058;-64
2022/11/07 07:09:27;;;;;;;6.97;1.02;;;;;;;;;;4954556;28;20059;-64
2022/11/07 07:11:55;;;;;;;10.07;1.75;;;;;;;;;;4944442;28;20059;-63
2022/11/07 07:14:22;;;;;;;6.97;1.50;;;;;;;;;;4956645;28;20051;-64
2022/11/07 07:16:48;;;;;;;8.20;1.20;;;;;;;;;;4971764;28;20074;-63
2022/11/07 07:19:15;;;;;;;7.80;1.48;;;;;;;;;;4960599;28;20051;-65
2022/11/07 07:21:42;;;;;;;8.95;1.38;;;;;;;;;;4950176;28;20055;-63
2022/11/07 07:24:09;;;;;;;10.38;1.38;;;;;;;;;;4970257;28;20080;-64
2022/11/07 07:26:38;;;;;;;8.35;1.15;;;;;;;;;;4967200;28;20130;-64
2022/11/07 07:29:07;;;;;;;7.45;1.50;;;;;;;;;;4961821;28;20051;-64
2022/11/07 07:31:34;;;;;;;6.65;1.30;;;;;;;;;;4966121;28;20059;-64
2022/11/07 07:34:00;;;;;;;4.97;1.25;;;;;;;;;;4970287;28;20062;-64
2022/11/07 07:36:28;;;;;;;3.90;1.08;;;;;;;;;;4981727;28;20316;-64
2022/11/07 07:38:55;;;;;;;6.43;1.60;;;;;;;;;;4959855;28;20046;-63
2022/11/07 07:41:25;;;;;;;4.20;1.27;;;;;;;;;;4962364;28;20051;-64
2022/11/07 07:43:52;;;;;;;5.68;1.23;;;;;;;;;;4962947;28;20057;-64
2022/11/07 07:46:22;;;;;;;4.70;1.17;;;;;;;;;;4963729;28;20054;-64
2022/11/07 07:48:49;;;;;;;8.75;1.63;;;;;;;;;;4963466;28;20055;-64
2022/11/07 07:51:16;;;;;;;4.43;1.13;;;;;;;;;;4956580;28;20078;-64
2022/11/07 07:53:43;;;;;;;5.43;1.20;;;;;;;;;;4967512;28;20063;-64
2022/11/07 07:56:10;;;;;;;9.48;1.45;;;;;;;;;;4968501;28;20047;-64
2022/11/07 07:58:37;;;;;;;9.18;1.05;;;;;;;;;;4966585;28;20070;-63
2022/11/07 08:01:09;;;;;;;8.88;1.60;;;;;;;;;;4977773;28;20588;-63
2022/11/07 08:03:37;;;;;;;5.88;1.10;;;;;;;;;;4962681;28;20043;-63
2022/11/07 08:06:04;;;;;;;4.63;1.70;;;;;;;;;;4963259;28;20050;-64
2022/11/07 08:08:31;;;;;;;9.18;1.92;;;;;;;;;;4963286;28;20046;-63
2022/11/07 08:11:02;;;;;;;8.57;1.77;;;;;;;;;;4963797;28;20046;-63
2022/11/07 08:13:28;;;;;;;6.13;1.27;;;;;;;;;;4963561;28;20046;-63
2022/11/07 08:15:55;;;;;;;5.45;1.33;;;;;;;;;;4957685;28;20071;-63
2022/11/07 08:18:22;;;;;;;6.78;1.60;;;;;;;;;;4942594;28;20103;-62
2022/11/07 08:20:52;;;;;;;8.32;1.38;;;;;;;;;;4943110;28;20130;-63
2022/11/07 08:23:20;;;;;;;5.80;1.10;;;;;;;;;;4945378;28;20236;-64
2022/11/07 08:25:51;;;;;;;11.60;3.63;;;;;;;;;;4967141;28;20039;-64
2022/11/07 08:28:17;;;;;;;10.43;2.75;;;;;;;;;;4967018;28;20054;-63
2022/11/07 08:30:44;;;;;;;10.07;1.75;;;;;;;;;;4977549;28;20078;-63
2022/11/07 08:33:12;;;;;;;8.30;1.30;;;;;;;;;;4971094;28;20055;-62
2022/11/07 08:35:39;;;;;;;4.15;0.88;;;;;;;;;;4961838;28;20046;-63
2022/11/07 08:38:07;;;;;;;10.45;1.58;;;;;;;;;;4976647;28;20114;-64
2022/11/07 08:40:34;;;;;;;5.53;1.60;;;;;;;;;;4959567;28;20055;-67
2022/11/07 08:43:02;;;;;;;4.55;1.50;;;;;;;;;;4978744;28;20043;-66
2022/11/07 08:45:29;;;;;;;6.10;1.33;;;;;;;;;;4975261;28;20057;-66
2022/11/07 08:47:56;;;;;;;5.45;1.30;;;;;;;;;;4978064;28;20054;-65
2022/11/07 08:50:23;;;;;;;8.50;1.38;;;;;;;;;;4980955;28;20042;-67
2022/11/07 08:52:50;;;;;;;4.68;1.10;;;;;;;;;;4977647;28;20054;-66
2022/11/07 08:55:18;;;;;;;9.70;1.40;;;;;;;;;;4955782;28;20368;-65
2022/11/07 08:57:44;;;;;;;6.05;1.13;;;;;;;;;;4969544;28;20260;-66
2022/11/07 09:00:12;;;;;;;5.38;1.30;;;;;;;;;;4960292;28;20050;-64
2022/11/07 09:02:38;;;;;;;5.95;1.02;;;;;;;;;;4961120;28;20058;-64
2022/11/07 09:05:05;;;;;;;2.90;0.95;;;;;;;;;;4975265;28;20058;-64
2022/11/07 09:07:31;;;;;;;4.95;0.98;;;;;;;;;;4978434;28;20091;-62
2022/11/07 09:09:59;;;;;;;6.05;1.30;;;;;;;;;;4975416;28;20063;-66
2022/11/07 09:12:28;;;;;;;6.63;1.33;;;;;;;;;;4977552;28;20046;-63
2022/11/07 09:21:01;;;;;;;9.30;1.10;;;;;;;;;;4958535;28;20336;-66
2022/11/07 09:23:28;;;;;;;5.87;1.20;;;;;;;;;;4954385;28;20035;-64
2022/11/07 09:25:55;;;;;;;4.00;1.20;;;;;;;;;;4978421;28;20334;-62
2022/11/07 09:28:23;;;;;;;7.45;1.25;;;;;;;;;;4980134;28;20047;-63
2022/11/07 09:30:52;;;;;;;5.50;1.30;;;;;;;;;;4965819;28;20049;-62
2022/11/07 09:33:19;;;;;;;9.48;1.15;;;;;;;;;;4975876;28;20054;-62
2022/11/07 09:35:46;;;;;;;13.65;1.58;;;;;;;;;;4981359;28;20055;-64
2022/11/07 09:38:13;;;;;;;5.72;1.17;;;;;;;;;;4977057;28;20117;-64
2022/11/07 10:05:12;;;;;;;9.55;1.50;;;;;;;;;;4948877;28;20118;-64
2022/11/07 10:07:41;;;;;;;6.60;1.63;;;;;;;;;;4981843;28;20093;-63
2022/11/07 10:10:13;;;;;;;4.30;1.15;;;;;;;;;;4973925;28;20133;-64
2022/11/07 10:12:46;;;;;;;4.82;1.35;;;;;;;;;;4959203;28;20057;-64
2022/11/07 10:15:16;;;;;;;9.68;1.50;;;;;;;;;;4952944;28;20066;-64
2022/11/07 10:17:45;;;;;;;5.85;1.20;;;;;;;;;;4966217;28;20046;-64
2022/11/07 10:20:19;;;;;;;6.15;1.60;;;;;;;;;;4958573;28;20136;-64
2022/11/07 10:38:19;;;;;;;4.80;1.48;;;;;;;;;;4922989;29;20043;-64
2022/11/07 10:40:46;;;;;;;6.10;1.15;;;;;;;;;;4943538;28;20111;-65
2022/11/07 10:43:16;;;;;;;4.40;1.30;;;;;;;;;;4937497;28;20051;-64
2022/11/07 10:45:42;;;;;;;8.70;1.48;;;;;;;;;;4938685;28;20150;-64
2022/11/07 10:48:12;;;;;;;4.82;1.33;;;;;;;;;;4941456;28;20051;-64
2022/11/07 10:50:39;;;;;;;5.97;1.40;;;;;;;;;;4952129;28;20055;-63
2022/11/07 10:53:18;;;;;;;6.47;1.40;;;;;;;;;;4955154;28;20052;-62
2022/11/07 11:04:54;;;;;;;7.32;1.25;;;;;;;;;;4950751;28;20047;-62
2022/11/07 11:07:21;;;;;;;3.25;1.20;;;;;;;;;;4953087;28;20118;-63
2022/11/07 11:09:53;;;;;;;7.28;1.10;;;;;;;;;;4964205;28;20239;-64
2022/11/07 11:12:21;;;;;;;7.22;1.42;;;;;;;;;;4976520;28;20049;-62
2022/11/07 11:14:47;;;;;;;8.25;1.45;;;;;;;;;;4959714;28;20058;-64
2022/11/07 11:17:23;;;;;;;10.55;1.33;;;;;;;;;;4961625;28;20097;-64
2022/11/07 11:19:51;;;;;;;7.78;1.23;;;;;;;;;;4960836;28;20047;-63
2022/11/07 11:22:19;;;;;;;6.30;1.30;;;;;;;;;;4968037;28;20074;-64
2022/11/07 11:24:45;;;;;;;9.23;2.08;;;;;;;;;;4964737;28;20064;-64
2022/11/07 11:27:17;;;;;;;6.38;1.58;;;;;;;;;;4972385;28;20050;-64
2022/11/07 11:29:48;;;;;;;8.82;1.58;;;;;;;;;;4984325;28;20145;-67
2022/11/07 11:32:20;;;;;;;11.35;1.27;;;;;;;;;;4979378;28;20043;-65
2022/11/07 11:34:51;;;;;;;4.95;1.20;;;;;;;;;;4978896;28;20440;-64
2022/11/07 11:37:19;;;;;;;7.10;1.40;;;;;;;;;;4957296;28;20110;-64
2022/11/07 11:39:49;;;;;;;10.25;1.65;;;;;;;;;;4964449;28;20051;-65
2022/11/07 11:42:25;;;;;;;6.55;1.42;;;;;;;;;;4965516;28;20122;-63
2022/11/07 11:44:52;;;;;;;9.98;1.50;;;;;;;;;;4964451;28;20066;-63
2022/11/07 11:47:22;;;;;;;10.80;1.50;;;;;;;;;;4974221;28;20055;-64
2022/11/07 11:49:52;;;;;;;4.00;1.27;;;;;;;;;;4984198;28;20051;-65
2022/11/07 11:52:20;;;;;;;5.15;1.40;;;;;;;;;;4984573;28;20055;-64
2022/11/07 11:54:47;;;;;;;8.45;1.52;;;;;;;;;;4979262;28;20055;-65
2022/11/07 11:57:16;;;;;;;6.32;1.48;;;;;;;;;;4982640;28;20039;-61
2022/11/07 11:59:59;;;;;;;6.88;1.30;;;;;;;;;;4983257;28;20042;-68
2022/11/07 18:21:25;;;;;;;6.03;1.45;;;;;;;;;;4997290;28;1352123;-63
2022/11/07 18:23:52;;;;;;;4.68;0.90;;;;;;;;;;5043151;28;20156;-63
2022/11/07 18:26:24;;;;;;;6.57;1.30;;;;;;;;;;5048613;28;20056;-64
2022/11/07 18:28:52;;;;;;;9.90;1.92;;;;;;;;;;5065417;28;20052;-63
2022/11/07 18:31:19;;;;;;;;;;;;;;;;;;5037138;28;20192;-62
2022/11/07 18:33:46;;;;;;;9.27;1.88;;;;;;;;;;5050262;28;19960;-62
2022/11/07 18:36:16;;;;;;;5.67;1.40;;;;;;;;;;5051124;28;20055;-62
2022/11/07 18:38:44;;;;;;;6.28;1.77;;;;;;;;;;5049542;28;20126;-63
2022/11/07 18:41:12;;;;;;;6.07;1.20;;;;;;;;;;5046481;28;20136;-62
2022/11/07 18:43:39;;;;;;;6.60;1.20;;;;;;;;;;5046029;28;20144;-64
2022/11/07 18:46:07;;;;;;;8.38;1.23;;;;;;;;;;5049345;28;20062;-63
2022/11/07 18:48:34;;;;;;;4.40;1.15;;;;;;;;;;5051798;28;20131;-63
2022/11/07 18:51:02;;;;;;;5.68;1.30;;;;;;;;;;5055905;28;20043;-64
2022/11/07 18:53:30;;;;;;;4.43;1.20;;;;;;;;;;5052616;28;20075;-64
2022/11/07 18:56:04;;;;;;;6.30;2.10;;;;;;;;;;5059567;28;20061;-62
2022/11/07 18:58:33;;;;;;;6.00;1.55;;;;;;;;;;5054481;28;20056;-63
2022/11/07 19:01:02;;;;;;;6.22;2.30;;;;;;;;;;5046418;28;20080;-64
2022/11/07 19:03:32;;;;;;;4.30;0.98;;;;;;;;;;5054187;28;20052;-64
2022/11/07 19:06:00;;;;;;;6.63;1.63;;;;;;;;;;5053806;28;20064;-63
2022/11/07 19:08:28;;;;;;;4.40;1.13;;;;;;;;;;5049957;28;20048;-62
2022/11/07 19:13:09;;;;;;;6.85;1.25;;;;;;;;;;5092927;27;20133;-64
2022/11/07 19:15:38;;;;;;;6.65;1.38;;;;;;;;;;5081578;28;20492;-63
2022/11/07 19:18:05;;;;;;;8.18;1.50;;;;;;;;;;5083759;28;20135;-63
2022/11/07 19:20:31;;;;;;;5.45;1.45;;;;;;;;;;5081527;28;20067;-63
2022/11/07 19:23:02;;;;;;;6.95;1.58;;;;;;;;;;5085932;28;20052;-64
2022/11/07 19:25:29;;;;;;;5.00;1.30;;;;;;;;;;5057386;28;20102;-64
2022/11/07 19:27:55;;;;;;;5.90;1.38;;;;;;;;;;5065145;28;20059;-63
2022/11/07 19:30:24;;;;;;;10.98;1.70;;;;;;;;;;5060647;28;20048;-64
2022/11/07 19:32:52;;;;;;;5.70;1.23;;;;;;;;;;5061651;28;20080;-63
2022/11/07 19:35:20;;;;;;;6.00;1.25;;;;;;;;;;5059648;28;20060;-63
2022/11/07 19:37:47;;;;;;;14.27;2.05;;;;;;;;;;5063836;28;20068;-64
2022/11/07 19:40:17;;;;;;;3.97;1.30;;;;;;;;;;5062866;28;20205;-64
2022/11/07 19:42:47;;;;;;;5.20;1.27;;;;;;;;;;5065997;28;20159;-63
2022/11/07 19:45:15;;;;;;;5.45;1.23;;;;;;;;;;5057005;28;20143;-63
2022/11/07 19:47:45;;;;;;;8.43;2.25;;;;;;;;;;5063785;28;20073;-63
2022/11/07 19:50:12;;;;;;;6.50;1.27;;;;;;;;;;5064998;28;20127;-64
2022/11/07 19:52:39;;;;;;;6.75;1.20;;;;;;;;;;5064652;28;20124;-63
2022/11/07 19:55:06;;;;;;;3.90;1.23;;;;;;;;;;5063139;28;20044;-64
2022/11/07 19:57:33;;;;;;;7.18;1.83;;;;;;;;;;5059959;28;20058;-63
2022/11/07 20:00:00;;;;;;;5.65;1.75;;;;;;;;;;5065087;28;20497;-63
2022/11/07 20:02:27;;;;;;;10.52;1.85;;;;;;;;;;5064450;28;20055;-63
2022/11/07 20:04:55;;;;;;;8.68;1.42;;;;;;;;;;5062873;28;20052;-64
2022/11/07 20:07:22;;;;;;;4.97;1.63;;;;;;;;;;5061538;28;20076;-63
2022/11/07 20:09:49;;;;;;;5.72;1.65;;;;;;;;;;5062411;28;20048;-63
2022/11/07 20:12:16;;;;;;;8.77;1.55;;;;;;;;;;5056070;28;20053;-63
2022/11/07 20:14:43;;;;;;;8.07;1.88;;;;;;;;;;5059350;28;20048;-63
2022/11/07 20:17:10;;;;;;;3.00;1.30;;;;;;;;;;5055339;28;20057;-63
2022/11/07 20:19:37;;;;;;;10.20;2.08;;;;;;;;;;5053333;28;20049;-63
2022/11/07 20:22:10;;;;;;;6.07;1.42;;;;;;;;;;5061401;28;20069;-64
2022/11/07 20:24:38;;;;;;;6.85;1.45;;;;;;;;;;5047691;28;20528;-63
2022/11/07 20:27:07;;;;;;;3.28;1.13;;;;;;;;;;5040334;28;20041;-64
2022/11/07 20:29:34;;;;;;;6.75;1.42;;;;;;;;;;5042304;28;20053;-63
2022/11/07 20:32:02;;;;;;;7.82;1.35;;;;;;;;;;5042508;28;20055;-63
2022/11/07 20:34:31;;;;;;;6.97;1.58;;;;;;;;;;5001510;28;20041;-63
2022/11/07 20:36:58;;;;;;;8.35;1.55;;;;;;;;;;5018486;28;20065;-64
2022/11/07 20:39:29;;;;;;;8.63;1.58;;;;;;;;;;4996445;28;20061;-64
2022/11/07 20:41:57;;;;;;;5.70;1.25;;;;;;;;;;4986752;28;20054;-63
2022/11/07 20:44:27;;;;;;;4.93;1.42;;;;;;;;;;4940718;28;20054;-63
2022/11/07 20:46:55;;;;;;;4.50;1.50;;;;;;;;;;4997445;28;20053;-63
2022/11/07 20:49:22;;;;;;;4.75;1.42;;;;;;;;;;5024230;28;20095;-63
2022/11/07 20:51:57;;;;;;;7.10;1.35;;;;;;;;;;5031981;28;20061;-64
2022/11/07 20:54:23;;;;;;;8.75;1.50;;;;;;;;;;5016988;28;20066;-64
2022/11/07 20:56:52;;;;;;;11.38;1.70;;;;;;;;;;5023698;28;20060;-63
2022/11/07 20:59:22;;;;;;;6.72;1.80;;;;;;;;;;5021453;28;20068;-63
2022/11/07 21:01:53;;;;;;;5.35;1.70;;;;;;;;;;5011405;28;20073;-66
2022/11/07 21:04:22;;;;;;;5.07;1.23;;;;;;;;;;5026680;28;20049;-64
2022/11/07 21:06:48;;;;;;;10.82;1.52;;;;;;;;;;5019424;28;22969;-63
2022/11/07 21:09:16;;;;;;;9.75;1.42;;;;;;;;;;5016537;28;20114;-63
2022/11/07 21:11:43;;;;;;;8.93;1.42;;;;;;;;;;5019751;28;20053;-64
2022/11/07 21:14:13;;;;;;;4.00;1.27;;;;;;;;;;5002627;28;20085;-63
2022/11/07 21:16:40;;;;;;;8.00;1.50;;;;;;;;;;5017681;28;20175;-64
2022/11/07 21:19:08;;;;;;;5.25;1.27;;;;;;;;;;5012775;28;20056;-63
2022/11/07 21:21:34;;;;;;;8.57;1.55;;;;;;;;;;5007561;28;20057;-64
2022/11/07 21:24:02;;;;;;;6.78;1.60;;;;;;;;;;5021036;28;20076;-64
2022/11/07 21:26:30;;;;;;;4.25;1.20;;;;;;;;;;5006533;28;20045;-64
2022/11/07 21:29:00;;;;;;;5.78;1.60;;;;;;;;;;5015351;28;20554;-64
2022/11/07 21:31:30;;;;;;;7.28;1.40;;;;;;;;;;4989943;28;20159;-63
2022/11/07 21:33:57;;;;;;;5.38;1.63;;;;;;;;;;5001286;28;20050;-63
2022/11/07 21:36:27;;;;;;;5.55;1.73;;;;;;;;;;4962704;28;20057;-64
2022/11/07 21:38:56;;;;;;;7.32;1.20;;;;;;;;;;5003624;28;20059;-63
2022/11/07 21:41:23;;;;;;;8.77;1.60;;;;;;;;;;5023663;28;20049;-63
2022/11/07 21:43:52;;;;;;;11.15;2.00;;;;;;;;;;5020055;28;20562;-63
2022/11/07 21:46:24;;;;;;;10.10;2.00;;;;;;;;;;5021168;28;20042;-64
2022/11/07 21:48:53;;;;;;;8.95;1.80;;;;;;;;;;5017953;28;20069;-63
2022/11/07 21:51:21;;;;;;;5.28;1.40;;;;;;;;;;5021507;28;20050;-63
2022/11/07 21:53:59;;;;;;;9.23;1.58;;;;;;;;;;5028047;28;20049;-64
2022/11/07 21:56:28;;;;;;;6.40;1.30;;;;;;;;;;5014093;28;20485;-64
2022/11/07 21:58:57;;;;;;;6.45;1.15;;;;;;;;;;5034150;28;20385;-63
2022/11/07 22:01:24;;;;;;;7.43;1.27;;;;;;;;;;5015495;28;20053;-63
2022/11/07 22:03:53;;;;;;;5.68;1.33;;;;;;;;;;5003402;28;20116;-64
2022/11/07 22:06:23;;;;;;;9.98;1.70;;;;;;;;;;5014771;28;20057;-63
2022/11/07 22:08:52;;;;;;;5.13;1.25;;;;;;;;;;5001353;28;20045;-64
2022/11/07 22:11:21;;;;;;;;;;;;;;;;;;5009407;28;20076;-64
2022/11/07 22:13:49;;;;;;;5.30;1.23;;;;;;;;;;5015905;28;19932;-63
2022/11/07 22:16:17;;;;;;;5.82;1.60;;;;;;;;;;5033627;28;20136;-64
2022/11/07 22:18:47;;;;;;;4.03;1.08;;;;;;;;;;5015194;28;20060;-64
2022/11/07 22:21:17;;;;;;;7.35;1.48;;;;;;;;;;5015643;28;20056;-64
2022/11/07 22:23:44;;;;;;;5.68;1.52;;;;;;;;;;5034950;28;20060;-64